Time;durP1;ratioP1;P1;durP2;ratioP2;P2;SDS_P1;SDS_P2;PMS_P1;PMS_P2;Temp;Humidity;BMP_temperature;BMP_pressure;BME280_temperature;BME280_humidity;BME280_pressure;Samples;Min_cycle;Max_cycle;Signal;HPM_P1;HPM_P2
2022/02/06 00:00:50;;;;;;;0.10;0.10;;;5.80;99.90;;;;;;5066559;28;20177;-83
2022/02/06 00:03:16;;;;;;;0.20;0.20;;;5.80;99.90;;;;;;5060354;28;20653;-83
2022/02/06 00:05:46;;;;;;;0.10;0.10;;;5.90;99.90;;;;;;5062088;28;20209;-83
2022/02/06 00:08:12;;;;;;;0.10;0.10;;;5.90;99.90;;;;;;5061959;28;20679;-83
2022/02/06 00:10:38;;;;;;;0.40;0.40;;;5.90;99.90;;;;;;5061863;28;20177;-83
2022/02/06 00:13:04;;;;;;;0.10;0.10;;;5.90;99.90;;;;;;5060059;28;20187;-83
2022/02/06 00:15:30;;;;;;;0.30;0.30;;;5.90;99.90;;;;;;5065574;28;20206;-83
2022/02/06 00:17:55;;;;;;;0.10;0.10;;;5.90;99.90;;;;;;5058906;28;20200;-83
2022/02/06 00:20:24;;;;;;;0.77;0.53;;;6.00;99.90;;;;;;5061348;28;20173;-83
2022/02/06 00:22:54;;;;;;;0.10;0.10;;;5.90;99.90;;;;;;5066798;28;20204;-83
2022/02/06 00:30:38;;;;;;;0.13;0.13;;;6.00;99.90;;;;;;5068937;28;20250;-83
2022/02/06 00:33:12;;;;;;;0.10;0.10;;;6.10;99.90;;;;;;5057490;28;20637;-83
2022/02/06 00:40:50;;;;;;;0.10;0.10;;;6.10;99.90;;;;;;5057275;28;20174;-84
2022/02/06 00:43:16;;;;;;;1.60;0.40;;;6.10;99.90;;;;;;5064364;28;20260;-83
2022/02/06 00:45:42;;;;;;;0.10;0.10;;;6.20;99.90;;;;;;5055069;28;20225;-83
2022/02/06 00:48:08;;;;;;;0.10;0.10;;;6.10;99.90;;;;;;5064398;28;20189;-83
2022/02/06 00:50:37;;;;;;;0.00;0.00;;;6.20;99.90;;;;;;5065892;28;20181;-84
2022/02/06 00:53:07;;;;;;;0.07;0.07;;;6.20;99.90;;;;;;5056347;28;20659;-83
2022/02/06 00:55:32;;;;;;;0.20;0.20;;;6.20;99.90;;;;;;5065299;28;20207;-84
2022/02/06 00:57:58;;;;;;;0.20;0.20;;;6.20;99.90;;;;;;5057829;28;20198;-84
2022/02/06 01:00:24;;;;;;;0.10;0.10;;;6.30;99.90;;;;;;5062266;28;20199;-83
2022/02/06 01:02:50;;;;;;;0.20;0.20;;;6.30;99.90;;;;;;5060876;28;20219;-83
2022/02/06 01:05:16;;;;;;;0.10;0.10;;;6.30;99.90;;;;;;5060629;28;20215;-83
2022/02/06 01:07:42;;;;;;;0.73;0.63;;;6.30;99.90;;;;;;5059129;28;20236;-83
2022/02/06 01:10:08;;;;;;;2.77;1.13;;;6.30;99.90;;;;;;5064403;28;20200;-83
2022/02/06 01:12:35;;;;;;;0.10;0.10;;;6.30;99.90;;;;;;5055932;28;20562;-83
2022/02/06 01:17:33;;;;;;;0.40;0.20;;;6.30;99.90;;;;;;5057072;28;20175;-83
2022/02/06 01:22:28;;;;;;;0.00;0.00;;;6.40;99.90;;;;;;5064656;28;20233;-83
2022/02/06 01:25:16;;;;;;;0.10;0.10;;;6.30;99.90;;;;;;5065957;28;20584;-84
2022/02/06 01:27:53;;;;;;;0.10;0.10;;;6.30;99.90;;;;;;5062276;28;20236;-83
2022/02/06 01:30:25;;;;;;;1.50;0.57;;;6.30;99.90;;;;;;5067120;28;20178;-83
2022/02/06 01:32:55;;;;;;;0.20;0.20;;;6.30;99.90;;;;;;5067787;28;20183;-83
2022/02/06 01:38:29;;;;;;;0.00;0.00;;;6.30;99.90;;;;;;5057684;28;20284;-83
2022/02/06 01:41:00;;;;;;;0.67;0.20;;;6.30;99.90;;;;;;5068205;28;20246;-84
2022/02/06 01:43:35;;;;;;;0.13;0.13;;;6.40;99.90;;;;;;5066671;28;20591;-83
2022/02/06 01:46:18;;;;;;;0.20;0.20;;;6.40;99.90;;;;;;5062351;28;20219;-83
2022/02/06 02:02:51;;;;;;;0.33;0.33;;;6.40;99.90;;;;;;5067910;28;20193;-83
2022/02/06 02:21:42;;;;;;;0.10;0.10;;;6.40;99.90;;;;;;5065200;28;20181;-83
2022/02/06 02:24:27;;;;;;;0.10;0.10;;;6.50;99.90;;;;;;5062364;28;20720;-83
2022/02/06 02:43:45;;;;;;;0.40;0.33;;;6.50;99.90;;;;;;5059496;28;20204;-83
2022/02/06 02:46:06;;;;;;;0.20;0.20;;;6.50;99.90;;;;;;5069135;28;20185;-83
2022/02/06 02:48:33;;;;;;;0.80;0.80;;;6.50;99.90;;;;;;5069772;28;20169;-83
2022/02/06 02:51:04;;;;;;;0.10;0.10;;;6.50;99.90;;;;;;5069585;28;20205;-83
2022/02/06 02:53:44;;;;;;;0.10;0.10;;;6.50;99.90;;;;;;5068442;28;20193;-84
2022/02/06 02:56:24;;;;;;;0.10;0.10;;;6.40;99.90;;;;;;5057907;28;20554;-83
2022/02/06 02:59:14;;;;;;;0.10;0.10;;;6.50;99.90;;;;;;5062181;28;20207;-83
2022/02/06 03:01:49;;;;;;;0.20;0.20;;;6.40;99.90;;;;;;5068747;28;20180;-83
2022/02/06 03:04:14;;;;;;;1.70;0.33;;;6.40;99.90;;;;;;5057607;28;20217;-83
2022/02/06 03:06:40;;;;;;;0.20;0.20;;;6.40;99.90;;;;;;5060834;28;20553;-83
2022/02/06 03:09:06;;;;;;;0.10;0.10;;;6.40;99.90;;;;;;5060856;28;20608;-83
2022/02/06 03:11:32;;;;;;;0.27;0.27;;;6.40;99.90;;;;;;5068004;28;20180;-83
2022/02/06 03:14:05;;;;;;;0.10;0.10;;;6.40;99.90;;;;;;5057658;28;20727;-83
2022/02/06 03:16:35;;;;;;;0.10;0.10;;;6.50;99.90;;;;;;5065293;28;20188;-83
2022/02/06 03:21:32;;;;;;;0.30;0.30;;;6.40;99.90;;;;;;5065334;28;20184;-83
2022/02/06 03:24:09;;;;;;;0.73;0.30;;;6.40;99.90;;;;;;5061956;28;20218;-84
2022/02/06 03:26:34;;;;;;;0.10;0.10;;;6.40;99.90;;;;;;5068622;28;20655;-83
2022/02/06 03:29:00;;;;;;;0.20;0.20;;;6.40;99.90;;;;;;5055747;28;20181;-83
2022/02/06 03:31:26;;;;;;;1.90;0.30;;;6.40;99.90;;;;;;5067425;28;20185;-83
2022/02/06 03:33:51;;;;;;;0.30;0.30;;;6.40;99.90;;;;;;5064027;28;20232;-82
2022/02/06 03:36:19;;;;;;;0.10;0.10;;;6.40;99.90;;;;;;5059218;28;20200;-83
2022/02/06 03:38:46;;;;;;;0.13;0.13;;;6.40;99.90;;;;;;5065101;28;20201;-83
2022/02/06 03:41:14;;;;;;;0.10;0.10;;;6.40;99.90;;;;;;5066124;28;20547;-83
2022/02/06 03:46:16;;;;;;;0.10;0.10;;;6.40;99.90;;;;;;5068163;28;20324;-83
2022/02/06 03:48:46;;;;;;;0.10;0.10;;;6.40;99.90;;;;;;5056479;28;20325;-83
2022/02/06 03:51:21;;;;;;;0.20;0.20;;;6.40;99.90;;;;;;5066132;28;20184;-83
2022/02/06 03:53:49;;;;;;;0.17;0.17;;;6.40;99.90;;;;;;5053659;28;20180;-83
2022/02/06 03:56:15;;;;;;;0.37;0.37;;;6.40;99.90;;;;;;5056591;28;20184;-83
2022/02/06 03:58:41;;;;;;;0.20;0.20;;;6.40;99.90;;;;;;5067276;28;20288;-83
2022/02/06 04:01:06;;;;;;;0.13;0.13;;;6.40;99.90;;;;;;5056671;28;20660;-83
2022/02/06 04:03:32;;;;;;;0.40;0.40;;;6.50;99.90;;;;;;5065960;28;20181;-83
2022/02/06 04:05:57;;;;;;;0.40;0.40;;;6.40;99.90;;;;;;5059984;28;20189;-83
2022/02/06 04:08:24;;;;;;;0.40;0.40;;;6.40;99.90;;;;;;5058326;28;20177;-83
2022/02/06 04:10:51;;;;;;;0.40;0.40;;;6.40;99.90;;;;;;5085711;28;20187;-83
2022/02/06 04:13:22;;;;;;;0.57;0.40;;;6.40;99.90;;;;;;5065992;28;20246;-83
2022/02/06 04:15:55;;;;;;;0.77;0.77;;;6.50;99.90;;;;;;5060328;28;20239;-83
2022/02/06 04:18:47;;;;;;;0.30;0.30;;;6.50;99.90;;;;;;5061212;28;20208;-83
2022/02/06 04:21:13;;;;;;;0.20;0.20;;;6.50;99.90;;;;;;5059562;28;20178;-83
2022/02/06 04:23:39;;;;;;;0.10;0.10;;;6.50;99.90;;;;;;5061709;28;20189;-83
2022/02/06 04:26:04;;;;;;;0.20;0.20;;;6.50;99.90;;;;;;5063909;28;20177;-84
2022/02/06 04:28:30;;;;;;;0.27;0.27;;;6.50;99.90;;;;;;5062608;28;20181;-83
2022/02/06 04:30:55;;;;;;;0.10;0.10;;;6.50;99.90;;;;;;5068051;28;20181;-83
2022/02/06 04:33:21;;;;;;;0.23;0.23;;;6.50;99.90;;;;;;5060365;28;20234;-83
2022/02/06 04:35:50;;;;;;;0.43;0.13;;;6.50;99.90;;;;;;5065518;28;20677;-83
2022/02/06 04:49:21;;;;;;;0.40;0.30;;;6.60;99.90;;;;;;5067533;28;20250;-84
2022/02/06 05:34:17;;;;;;;0.20;0.20;;;6.80;99.90;;;;;;5065316;28;20289;-83
2022/02/06 05:36:43;;;;;;;0.10;0.10;;;6.80;99.90;;;;;;5064618;28;20210;-83
2022/02/06 05:39:09;;;;;;;0.10;0.10;;;6.80;99.90;;;;;;5068960;28;20198;-83
2022/02/06 05:41:34;;;;;;;0.60;0.60;;;6.80;99.90;;;;;;5070226;28;20661;-83
2022/02/06 05:44:02;;;;;;;0.40;0.40;;;6.80;99.90;;;;;;5067677;28;20198;-83
2022/02/06 05:46:28;;;;;;;0.10;0.10;;;6.80;99.90;;;;;;5060162;28;20180;-83
2022/02/06 05:48:53;;;;;;;1.43;1.40;;;6.90;99.90;;;;;;5068833;28;20275;-83
2022/02/06 05:51:19;;;;;;;0.10;0.10;;;6.90;99.90;;;;;;5058846;28;20656;-83
2022/02/06 05:53:45;;;;;;;1.43;0.30;;;6.90;99.90;;;;;;5069720;28;20622;-83
2022/02/06 05:56:11;;;;;;;1.03;0.30;;;6.90;99.90;;;;;;5060094;28;20654;-83
2022/02/06 05:58:37;;;;;;;0.13;0.13;;;6.80;99.90;;;;;;5069483;28;20213;-83
2022/02/06 06:01:03;;;;;;;0.20;0.20;;;6.80;99.90;;;;;;5069875;28;20170;-83
2022/02/06 06:03:28;;;;;;;0.20;0.20;;;6.80;99.90;;;;;;5059218;28;20174;-83
2022/02/06 06:05:54;;;;;;;0.10;0.10;;;6.80;99.90;;;;;;5066097;28;20185;-83
2022/02/06 06:08:20;;;;;;;0.87;0.40;;;6.70;99.90;;;;;;5065208;28;20263;-83
2022/02/06 06:10:46;;;;;;;0.20;0.20;;;6.70;99.90;;;;;;5063941;28;20352;-83
2022/02/06 06:13:12;;;;;;;0.73;0.33;;;6.70;99.90;;;;;;5063180;28;20654;-83
2022/02/06 06:15:38;;;;;;;0.50;0.30;;;6.70;99.90;;;;;;5070533;28;20208;-83
2022/02/06 06:18:05;;;;;;;0.10;0.10;;;6.70;99.90;;;;;;5066179;28;20217;-84
2022/02/06 06:20:34;;;;;;;0.10;0.10;;;6.80;99.90;;;;;;5058336;28;20190;-83
2022/02/06 06:22:59;;;;;;;0.87;0.83;;;6.80;99.90;;;;;;5058812;28;20173;-83
2022/02/06 06:25:31;;;;;;;0.30;0.30;;;6.80;99.90;;;;;;5068783;28;20215;-83
2022/02/06 06:27:57;;;;;;;0.10;0.10;;;6.80;99.90;;;;;;5054658;28;20212;-84
2022/02/06 06:30:22;;;;;;;0.10;0.10;;;6.80;99.90;;;;;;5080039;28;20654;-83
2022/02/06 06:32:48;;;;;;;0.10;0.10;;;6.80;99.90;;;;;;5088172;28;20238;-83
2022/02/06 06:35:16;;;;;;;1.17;0.50;;;6.80;99.90;;;;;;5075496;28;20200;-84
2022/02/06 06:37:41;;;;;;;0.40;0.40;;;6.90;99.90;;;;;;5084168;28;20197;-83
2022/02/06 06:40:08;;;;;;;0.17;0.17;;;6.90;99.90;;;;;;5084007;28;20218;-83
2022/02/06 06:42:34;;;;;;;0.40;0.40;;;6.90;99.90;;;;;;5069876;28;20220;-83
2022/02/06 06:44:59;;;;;;;0.10;0.10;;;6.90;99.90;;;;;;5069992;28;20195;-83
2022/02/06 06:47:25;;;;;;;0.50;0.40;;;6.90;99.90;;;;;;5064533;28;20223;-83
2022/02/06 06:49:50;;;;;;;0.23;0.23;;;6.90;99.90;;;;;;5064206;28;20335;-83
2022/02/06 06:52:16;;;;;;;0.20;0.20;;;6.90;99.90;;;;;;5065946;28;20181;-83
2022/02/06 06:54:46;;;;;;;0.10;0.10;;;6.90;99.90;;;;;;5058113;28;20289;-83
2022/02/06 06:57:22;;;;;;;0.10;0.10;;;6.90;99.90;;;;;;5062409;28;20181;-83
2022/02/06 07:00:20;;;;;;;0.10;0.10;;;6.90;99.90;;;;;;5067327;28;20558;-83
2022/02/06 07:02:33;;;;;;;0.33;0.33;;;6.90;99.90;;;;;;5062629;28;20179;-83
2022/02/06 07:05:03;;;;;;;0.10;0.10;;;6.90;99.90;;;;;;5062526;28;20635;-83
2022/02/06 07:07:30;;;;;;;0.10;0.10;;;6.90;99.90;;;;;;5058777;28;20181;-83
2022/02/06 07:09:55;;;;;;;0.20;0.20;;;7.00;99.90;;;;;;5068687;28;20178;-83
2022/02/06 07:12:21;;;;;;;0.20;0.20;;;7.00;99.90;;;;;;5060333;28;20633;-83
2022/02/06 07:14:48;;;;;;;0.10;0.10;;;6.90;99.90;;;;;;5070739;28;20352;-83
2022/02/06 07:17:14;;;;;;;0.20;0.20;;;6.90;99.90;;;;;;5061048;28;20655;-83
2022/02/06 07:19:41;;;;;;;0.13;0.13;;;6.90;99.90;;;;;;5072186;28;20227;-83
2022/02/06 07:22:11;;;;;;;0.10;0.10;;;6.90;99.90;;;;;;5058594;28;20180;-83
2022/02/06 07:24:37;;;;;;;0.10;0.10;;;7.00;99.90;;;;;;5068580;28;20256;-83
2022/02/06 07:27:14;;;;;;;0.23;0.20;;;7.00;99.90;;;;;;5065160;28;20178;-83
2022/02/06 07:29:40;;;;;;;0.10;0.10;;;7.00;99.90;;;;;;5067399;28;20197;-83
2022/02/06 07:32:05;;;;;;;0.30;0.30;;;7.00;99.90;;;;;;5060646;28;20185;-83
2022/02/06 07:34:31;;;;;;;0.10;0.10;;;7.00;99.90;;;;;;5062576;28;20248;-83
2022/02/06 07:36:56;;;;;;;0.13;0.13;;;7.00;99.90;;;;;;5063561;28;20200;-83
2022/02/06 07:39:22;;;;;;;0.10;0.10;;;7.00;99.90;;;;;;5062535;28;20213;-83
2022/02/06 07:41:47;;;;;;;0.07;0.07;;;7.00;99.90;;;;;;5076604;28;20179;-83
2022/02/06 07:44:13;;;;;;;0.10;0.10;;;7.00;99.90;;;;;;5066102;28;20202;-83
2022/02/06 07:46:45;;;;;;;0.10;0.10;;;7.10;99.90;;;;;;5058116;28;20186;-83
2022/02/06 07:49:10;;;;;;;0.10;0.10;;;7.10;99.90;;;;;;5066756;28;20280;-83
2022/02/06 07:51:37;;;;;;;0.00;0.00;;;7.10;99.90;;;;;;5058211;28;20205;-83
2022/02/06 07:54:03;;;;;;;0.10;0.10;;;7.10;99.90;;;;;;5068754;28;20202;-83
2022/02/06 07:56:29;;;;;;;0.20;0.20;;;7.20;99.90;;;;;;5058614;28;20186;-83
2022/02/06 07:58:54;;;;;;;0.10;0.10;;;7.20;99.90;;;;;;5067828;28;20260;-83
2022/02/06 08:01:20;;;;;;;0.10;0.10;;;7.20;99.90;;;;;;5058584;28;20195;-83
2022/02/06 08:03:45;;;;;;;0.10;0.10;;;7.20;99.90;;;;;;5067539;28;20181;-83
2022/02/06 08:06:12;;;;;;;0.10;0.10;;;7.20;99.90;;;;;;5062618;28;20194;-83
2022/02/06 08:08:38;;;;;;;0.10;0.10;;;7.20;99.90;;;;;;5065358;28;20726;-83
2022/02/06 08:11:04;;;;;;;0.10;0.10;;;7.20;99.90;;;;;;5060310;28;20209;-83
2022/02/06 08:13:52;;;;;;;2.03;0.30;;;7.20;99.90;;;;;;5064738;28;20170;-83
2022/02/06 08:16:18;;;;;;;0.10;0.10;;;7.20;99.90;;;;;;5057855;28;20273;-83
2022/02/06 08:18:43;;;;;;;0.10;0.10;;;7.20;99.90;;;;;;5063782;28;20284;-83
2022/02/06 08:21:10;;;;;;;0.00;0.00;;;7.10;99.90;;;;;;5062779;28;20179;-83
2022/02/06 08:23:37;;;;;;;0.10;0.10;;;7.20;99.90;;;;;;5064157;28;20203;-83
2022/02/06 08:26:04;;;;;;;0.20;0.20;;;7.10;99.90;;;;;;5065780;28;20170;-83
2022/02/06 08:28:30;;;;;;;0.10;0.10;;;7.10;99.90;;;;;;5061752;28;20180;-83
2022/02/06 08:30:55;;;;;;;0.00;0.00;;;7.10;99.90;;;;;;5070466;28;20176;-83
2022/02/06 08:33:21;;;;;;;0.10;0.10;;;7.10;99.90;;;;;;5062752;28;20648;-83
2022/02/06 08:35:47;;;;;;;4.43;0.30;;;7.00;99.90;;;;;;5067233;28;20681;-83
2022/02/06 08:38:13;;;;;;;0.17;0.17;;;7.00;99.90;;;;;;5057939;28;20196;-83
2022/02/06 08:40:40;;;;;;;0.20;0.20;;;7.00;99.90;;;;;;5068875;28;20178;-83
2022/02/06 08:43:05;;;;;;;0.20;0.20;;;7.00;99.90;;;;;;5058563;28;20178;-83
2022/02/06 08:45:31;;;;;;;1.80;0.20;;;7.00;99.90;;;;;;5063250;28;20230;-83
2022/02/06 08:47:57;;;;;;;0.43;0.43;;;6.90;99.90;;;;;;5066485;28;20178;-83
2022/02/06 08:50:23;;;;;;;0.10;0.10;;;7.00;99.90;;;;;;5063769;28;20172;-83
2022/02/06 08:52:50;;;;;;;0.00;0.00;;;6.90;99.90;;;;;;5059108;28;20178;-83
2022/02/06 08:55:17;;;;;;;0.30;0.30;;;6.80;99.90;;;;;;5062433;28;20291;-83
2022/02/06 08:57:47;;;;;;;0.13;0.13;;;6.90;99.90;;;;;;5065174;28;20186;-83
2022/02/06 09:00:18;;;;;;;0.10;0.10;;;6.90;99.90;;;;;;5065617;28;20557;-83
2022/02/06 09:02:44;;;;;;;0.10;0.10;;;6.90;99.90;;;;;;5065588;28;20260;-83
2022/02/06 09:05:11;;;;;;;1.07;0.40;;;6.90;99.90;;;;;;5068737;28;20313;-83
2022/02/06 09:07:37;;;;;;;0.20;0.20;;;6.90;99.90;;;;;;5061688;28;20201;-83
2022/02/06 09:10:03;;;;;;;0.10;0.10;;;6.90;99.90;;;;;;5073403;28;20177;-83
2022/02/06 09:12:30;;;;;;;0.10;0.10;;;6.90;99.90;;;;;;5070356;28;20277;-83
2022/02/06 09:14:55;;;;;;;0.10;0.10;;;7.00;99.90;;;;;;5059017;28;20246;-83
2022/02/06 09:17:21;;;;;;;0.10;0.10;;;7.00;99.90;;;;;;5069671;28;20184;-83
2022/02/06 09:19:48;;;;;;;0.10;0.10;;;6.90;99.90;;;;;;5059155;28;20730;-83
2022/02/06 09:22:14;;;;;;;0.10;0.10;;;6.90;99.90;;;;;;5069755;28;20185;-83
2022/02/06 09:24:41;;;;;;;0.20;0.20;;;6.90;99.90;;;;;;5062078;28;21315;-83
2022/02/06 09:27:08;;;;;;;0.10;0.10;;;6.90;99.90;;;;;;5065992;28;20231;-83
2022/02/06 09:29:35;;;;;;;0.30;0.30;;;6.90;99.90;;;;;;5070167;28;20189;-83
2022/02/06 09:37:04;;;;;;;0.10;0.10;;;6.90;99.90;;;;;;5066853;28;20669;-83
2022/02/06 09:39:33;;;;;;;0.10;0.10;;;7.00;99.90;;;;;;5063493;28;20204;-83
2022/02/06 09:41:59;;;;;;;0.27;0.27;;;7.00;99.90;;;;;;5063210;28;20319;-83
2022/02/06 09:44:27;;;;;;;0.30;0.10;;;7.00;99.90;;;;;;5064994;28;20676;-84
2022/02/06 09:46:54;;;;;;;0.10;0.10;;;7.00;99.90;;;;;;5063314;28;20173;-84
2022/02/06 09:49:22;;;;;;;0.10;0.10;;;7.10;99.90;;;;;;5066352;28;20187;-83
2022/02/06 09:51:48;;;;;;;0.10;0.10;;;7.10;99.90;;;;;;5067376;28;20203;-83
2022/02/06 09:54:14;;;;;;;0.10;0.10;;;7.10;99.90;;;;;;5059855;28;20198;-83
2022/02/06 09:56:46;;;;;;;0.10;0.10;;;7.10;99.90;;;;;;5064733;28;20277;-83
2022/02/06 09:59:20;;;;;;;0.10;0.10;;;7.10;99.90;;;;;;5069046;28;20677;-83
2022/02/06 10:01:55;;;;;;;0.20;0.20;;;7.10;99.90;;;;;;5058441;28;20270;-83
2022/02/06 10:04:30;;;;;;;0.10;0.10;;;7.10;99.90;;;;;;5068387;28;20216;-83
2022/02/06 10:07:05;;;;;;;0.10;0.10;;;7.10;99.90;;;;;;5062733;28;20178;-84
2022/02/06 10:09:52;;;;;;;0.10;0.10;;;7.10;99.90;;;;;;5058994;28;20183;-83
2022/02/06 10:12:21;;;;;;;0.23;0.10;;;7.20;99.90;;;;;;5059149;28;20292;-83
2022/02/06 10:14:47;;;;;;;0.93;0.20;;;7.10;99.90;;;;;;5069521;28;20692;-83
2022/02/06 10:17:13;;;;;;;0.10;0.10;;;7.10;99.90;;;;;;5060008;28;20685;-83
2022/02/06 10:19:52;;;;;;;0.20;0.20;;;7.10;99.90;;;;;;5071114;28;20240;-83
2022/02/06 10:22:22;;;;;;;0.20;0.20;;;7.10;99.90;;;;;;5059400;28;20189;-83
2022/02/06 10:24:58;;;;;;;0.30;0.30;;;7.10;99.90;;;;;;5069890;28;20606;-83
2022/02/06 10:27:53;;;;;;;0.10;0.10;;;7.10;99.90;;;;;;5066652;28;20185;-83
2022/02/06 10:30:28;;;;;;;0.10;0.10;;;7.10;99.90;;;;;;5062511;28;20181;-83
2022/02/06 10:32:54;;;;;;;0.17;0.17;;;7.10;99.90;;;;;;5070465;28;20189;-83
2022/02/06 10:35:20;;;;;;;0.10;0.10;;;7.20;99.90;;;;;;5067981;28;20251;-83
2022/02/06 10:37:46;;;;;;;0.10;0.10;;;7.20;99.90;;;;;;5069243;28;20194;-84
2022/02/06 10:40:12;;;;;;;0.10;0.10;;;7.20;99.90;;;;;;5063415;28;20210;-83
2022/02/06 10:42:43;;;;;;;0.10;0.10;;;7.30;99.90;;;;;;5059298;28;20670;-83
2022/02/06 10:45:17;;;;;;;0.10;0.10;;;7.20;99.90;;;;;;5065896;28;20666;-83
2022/02/06 10:47:43;;;;;;;2.57;0.70;;;7.20;99.90;;;;;;5060412;28;20177;-82
2022/02/06 10:50:24;;;;;;;0.40;0.20;;;7.20;99.90;;;;;;5064086;28;20188;-84
2022/02/06 10:52:50;;;;;;;0.00;0.00;;;7.20;99.90;;;;;;5059958;28;20198;-83
2022/02/06 10:55:19;;;;;;;0.20;0.20;;;7.10;99.90;;;;;;5057918;28;20623;-83
2022/02/06 10:57:57;;;;;;;0.37;0.37;;;7.20;99.90;;;;;;5062669;28;20699;-83
2022/02/06 11:00:31;;;;;;;0.10;0.10;;;7.20;99.90;;;;;;5062496;28;20199;-83
2022/02/06 11:03:02;;;;;;;0.10;0.10;;;7.20;99.90;;;;;;5061998;28;20183;-83
2022/02/06 11:05:40;;;;;;;0.10;0.10;;;7.20;99.90;;;;;;5062434;28;20311;-83
2022/02/06 11:08:06;;;;;;;0.07;0.07;;;7.20;99.90;;;;;;5061208;28;20201;-83
2022/02/06 11:10:34;;;;;;;0.13;0.13;;;7.10;99.90;;;;;;5062587;28;20196;-83
2022/02/06 11:13:05;;;;;;;0.10;0.10;;;7.10;99.90;;;;;;5066437;28;20185;-83
2022/02/06 11:15:38;;;;;;;0.37;0.30;;;7.10;99.90;;;;;;5067466;28;20204;-83
2022/02/06 11:18:15;;;;;;;0.00;0.00;;;7.00;99.90;;;;;;5060698;28;20179;-83
2022/02/06 11:21:06;;;;;;;0.00;0.00;;;7.00;99.90;;;;;;5058051;28;20177;-83
2022/02/06 11:23:40;;;;;;;0.20;0.20;;;6.90;99.90;;;;;;5059791;28;20216;-83
2022/02/06 11:26:17;;;;;;;0.17;0.17;;;6.80;99.90;;;;;;5059789;28;20190;-84
2022/02/06 11:28:42;;;;;;;0.93;0.30;;;6.80;99.90;;;;;;5062454;28;20192;-83
2022/02/06 11:31:08;;;;;;;0.10;0.10;;;6.80;99.90;;;;;;5070081;28;20185;-83
2022/02/06 11:33:34;;;;;;;0.10;0.10;;;6.70;99.90;;;;;;5067519;28;20188;-83
2022/02/06 11:36:06;;;;;;;0.10;0.10;;;6.80;99.90;;;;;;5060099;28;20264;-83
2022/02/06 11:44:50;;;;;;;9.83;0.20;;;6.70;99.90;;;;;;5063060;28;20258;-83
2022/02/06 11:47:25;;;;;;;0.10;0.10;;;6.70;99.90;;;;;;5061977;28;20188;-84
2022/02/06 11:49:54;;;;;;;0.07;0.07;;;6.70;99.90;;;;;;5087447;28;20200;-83
2022/02/06 11:52:20;;;;;;;0.10;0.10;;;6.60;99.90;;;;;;5062737;28;20185;-83
2022/02/06 11:54:48;;;;;;;0.00;0.00;;;6.60;99.90;;;;;;5063148;28;20216;-83
2022/02/06 11:57:17;;;;;;;0.30;0.30;;;6.60;99.90;;;;;;5053915;28;20273;-83
2022/02/06 12:00:04;;;;;;;0.10;0.10;;;6.60;99.90;;;;;;5059242;28;20210;-83
2022/02/06 12:02:35;;;;;;;0.43;0.30;;;6.60;99.90;;;;;;5064419;28;20170;-83
2022/02/06 12:05:24;;;;;;;0.10;0.10;;;6.60;99.90;;;;;;5064763;28;20263;-83
2022/02/06 12:07:52;;;;;;;0.10;0.10;;;6.60;99.90;;;;;;5062869;28;20204;-83
2022/02/06 12:10:34;;;;;;;0.10;0.10;;;6.60;99.90;;;;;;5058916;28;20188;-83
2022/02/06 12:13:19;;;;;;;0.10;0.10;;;6.60;99.90;;;;;;5059572;28;20174;-83
2022/02/06 12:15:50;;;;;;;0.30;0.30;;;6.60;99.90;;;;;;5061529;28;20316;-83
2022/02/06 12:18:24;;;;;;;0.10;0.10;;;6.70;99.90;;;;;;5060682;28;20207;-83
2022/02/06 12:20:53;;;;;;;0.10;0.10;;;6.70;99.90;;;;;;5059302;28;20219;-83
2022/02/06 12:23:41;;;;;;;0.10;0.10;;;6.70;99.90;;;;;;5062624;28;20178;-83
2022/02/06 12:26:27;;;;;;;0.10;0.10;;;6.70;99.90;;;;;;5057318;28;20257;-83
2022/02/06 12:28:54;;;;;;;0.10;0.10;;;6.70;99.90;;;;;;5062277;28;20262;-83
2022/02/06 12:31:30;;;;;;;0.00;0.00;;;6.70;99.90;;;;;;5070274;28;20187;-83
2022/02/06 12:34:20;;;;;;;0.10;0.10;;;6.80;99.90;;;;;;5066790;28;20226;-83
2022/02/06 12:37:22;;;;;;;0.57;0.57;;;6.70;99.90;;;;;;5068749;28;20189;-83
2022/02/06 12:39:39;;;;;;;0.10;0.10;;;6.70;99.90;;;;;;5056040;28;20223;-83
2022/02/06 12:42:09;;;;;;;0.10;0.10;;;6.70;99.90;;;;;;5055724;28;20265;-83
2022/02/06 12:44:35;;;;;;;0.10;0.10;;;6.70;99.90;;;;;;5061338;28;20564;-83
2022/02/06 12:47:03;;;;;;;0.83;0.20;;;6.70;99.90;;;;;;5062625;28;20178;-83
2022/02/06 12:49:39;;;;;;;0.10;0.10;;;6.70;99.90;;;;;;5062022;28;20181;-83
2022/02/06 12:52:04;;;;;;;0.10;0.10;;;6.70;99.90;;;;;;5068209;28;20181;-83
2022/02/06 12:54:30;;;;;;;1.30;0.30;;;6.70;99.90;;;;;;5064912;28;20209;-83
2022/02/06 12:56:58;;;;;;;0.10;0.10;;;6.70;99.90;;;;;;5071571;28;20175;-83
2022/02/06 12:59:26;;;;;;;0.10;0.10;;;6.80;99.90;;;;;;5062010;28;20205;-83
2022/02/06 13:01:55;;;;;;;0.10;0.10;;;6.70;99.90;;;;;;5071971;28;20668;-83
2022/02/06 13:04:23;;;;;;;0.10;0.10;;;6.70;99.90;;;;;;5058302;28;20217;-83
2022/02/06 13:06:52;;;;;;;0.07;0.07;;;6.80;99.90;;;;;;5062025;28;20185;-83
2022/02/06 13:09:30;;;;;;;0.00;0.00;;;6.80;99.90;;;;;;5064253;28;20193;-83
2022/02/06 13:12:14;;;;;;;0.10;0.10;;;6.80;99.90;;;;;;5067613;28;20615;-83
2022/02/06 13:20:28;;;;;;;0.10;0.10;;;6.80;99.90;;;;;;5068805;28;20212;-83
2022/02/06 13:23:03;;;;;;;0.10;0.10;;;6.80;99.90;;;;;;5057158;28;20192;-83
2022/02/06 13:33:49;;;;;;;0.07;0.07;;;6.80;99.90;;;;;;5053583;28;20353;-83
2022/02/06 13:39:30;;;;;;;0.33;0.20;;;6.70;99.90;;;;;;5021066;28;20244;-82
2022/02/06 13:41:55;;;;;;;0.00;0.00;;;6.80;99.90;;;;;;5053991;28;20235;-83
2022/02/06 13:44:24;;;;;;;0.10;0.10;;;6.80;99.90;;;;;;5073897;28;20205;-83
2022/02/06 13:46:53;;;;;;;0.10;0.10;;;6.80;99.90;;;;;;5070391;28;20316;-83
2022/02/06 13:49:27;;;;;;;0.07;0.07;;;6.90;99.90;;;;;;5069222;28;20711;-83
2022/02/06 13:51:52;;;;;;;0.00;0.00;;;7.00;99.90;;;;;;5069744;28;20213;-83
2022/02/06 13:54:20;;;;;;;0.03;0.03;;;7.00;99.90;;;;;;5060947;28;20258;-83
2022/02/06 13:56:56;;;;;;;0.10;0.10;;;7.00;99.90;;;;;;5064752;28;20264;-83
2022/02/06 13:59:22;;;;;;;0.20;0.10;;;7.00;99.90;;;;;;5070389;28;20205;-83
2022/02/06 14:01:51;;;;;;;0.00;0.00;;;7.00;99.90;;;;;;5070725;28;20229;-83
2022/02/06 14:04:26;;;;;;;0.10;0.10;;;7.00;99.90;;;;;;5068564;28;20457;-83
2022/02/06 14:07:02;;;;;;;0.07;0.07;;;7.00;99.90;;;;;;5063972;28;20210;-83
2022/02/06 14:09:31;;;;;;;0.00;0.00;;;7.00;99.90;;;;;;5059817;28;20216;-83
2022/02/06 14:12:20;;;;;;;0.10;0.10;;;7.10;99.90;;;;;;5069220;28;20178;-83
2022/02/06 14:14:51;;;;;;;0.10;0.10;;;7.10;99.90;;;;;;5071858;28;20285;-83
2022/02/06 14:17:22;;;;;;;0.10;0.10;;;7.10;99.90;;;;;;5062660;28;20177;-83
2022/02/06 14:19:48;;;;;;;0.07;0.07;;;7.10;99.90;;;;;;5063940;28;20299;-83
2022/02/06 14:22:29;;;;;;;0.10;0.10;;;7.10;99.90;;;;;;5068906;28;20177;-83
2022/02/06 14:24:57;;;;;;;0.10;0.10;;;7.10;99.90;;;;;;5062811;28;20199;-83
2022/02/06 14:27:44;;;;;;;0.87;0.23;;;7.10;99.90;;;;;;5061692;28;20175;-83
2022/02/06 14:30:15;;;;;;;0.10;0.10;;;7.00;99.90;;;;;;5065072;28;20599;-83
2022/02/06 14:33:05;;;;;;;0.20;0.20;;;7.10;99.90;;;;;;5064892;28;20215;-83
2022/02/06 14:35:43;;;;;;;0.10;0.10;;;7.10;99.90;;;;;;5067718;28;20678;-83
2022/02/06 14:38:16;;;;;;;0.10;0.10;;;7.10;99.90;;;;;;5058368;28;20184;-83
2022/02/06 14:43:16;;;;;;;0.20;0.20;;;7.10;99.90;;;;;;5063307;28;20207;-83
2022/02/06 14:45:49;;;;;;;0.10;0.10;;;7.10;99.90;;;;;;5068273;28;20307;-83
2022/02/06 14:48:16;;;;;;;0.10;0.10;;;7.10;99.90;;;;;;5058054;28;20226;-83
2022/02/06 14:50:49;;;;;;;0.07;0.07;;;7.00;99.90;;;;;;5067216;28;20183;-83
2022/02/06 14:53:16;;;;;;;0.10;0.10;;;7.10;99.90;;;;;;5058769;28;20189;-84
2022/02/06 14:55:43;;;;;;;0.10;0.10;;;7.10;99.90;;;;;;5065036;28;20204;-83
2022/02/06 14:58:09;;;;;;;0.20;0.10;;;7.10;99.90;;;;;;5066612;28;20180;-84
2022/02/06 15:00:35;;;;;;;0.00;0.00;;;7.00;99.90;;;;;;5064063;28;20651;-83
2022/02/06 15:03:01;;;;;;;0.00;0.00;;;7.00;99.90;;;;;;5063805;28;20174;-83
2022/02/06 15:05:28;;;;;;;0.20;0.20;;;7.00;99.90;;;;;;5063567;28;20583;-83
2022/02/06 15:07:54;;;;;;;0.10;0.10;;;7.00;99.90;;;;;;5065451;28;20173;-83
2022/02/06 15:10:20;;;;;;;0.10;0.10;;;6.90;99.90;;;;;;5061650;28;20184;-83
2022/02/06 15:12:45;;;;;;;0.00;0.00;;;7.00;99.90;;;;;;5065702;28;20806;-84
2022/02/06 15:15:12;;;;;;;0.10;0.10;;;6.90;99.90;;;;;;5083043;28;20274;-84
2022/02/06 15:17:38;;;;;;;0.27;0.10;;;6.90;99.90;;;;;;5068218;28;20181;-83
2022/02/06 15:20:04;;;;;;;0.00;0.00;;;6.90;99.90;;;;;;5061409;28;20205;-84
2022/02/06 15:22:29;;;;;;;0.40;0.40;;;6.90;99.90;;;;;;5057989;28;20240;-84
2022/02/06 15:24:55;;;;;;;0.00;0.00;;;6.90;99.90;;;;;;5071520;28;20207;-83
2022/02/06 15:27:20;;;;;;;0.10;0.10;;;6.90;99.90;;;;;;5063906;28;20192;-84
2022/02/06 15:29:46;;;;;;;0.10;0.10;;;6.90;99.90;;;;;;5078970;28;20177;-84
2022/02/06 15:32:12;;;;;;;0.10;0.10;;;6.80;99.90;;;;;;5080926;28;20182;-84
2022/02/06 15:34:37;;;;;;;0.10;0.10;;;6.90;99.90;;;;;;5059466;28;20217;-84
2022/02/06 15:37:04;;;;;;;0.63;0.20;;;6.90;99.90;;;;;;5072761;28;20177;-84
2022/02/06 15:39:40;;;;;;;0.00;0.00;;;6.90;99.90;;;;;;5063450;28;20210;-83
2022/02/06 15:42:12;;;;;;;0.07;0.07;;;6.80;99.90;;;;;;5065091;28;20541;-84
2022/02/06 15:44:40;;;;;;;0.10;0.10;;;6.80;99.90;;;;;;5062236;28;20218;-83